Time,TemperatureF,DewpointF,PressureIn,WindDirection,WindDirectionDegrees,WindSpeedMPH,WindSpeedGustMPH,Humidity,HourlyPrecipIn,Conditions,Clouds,dailyrainin,SoftwareType,DateUTC
2013-03-14 00:00:00,67.2,31.8,29.62,ESE,113,0.0,0.0,27,0.00,,,0.00,WUHU216HW,2013-03-14 06:00:00,
2013-03-14 00:05:00,67.2,31.8,29.62,East,90,0.0,0.0,27,0.00,,,0.00,WUHU216HW,2013-03-14 06:05:00,
2013-03-14 00:10:00,67.1,31.6,29.62,SSW,203,2.0,2.0,27,0.00,,,0.00,WUHU216HW,2013-03-14 06:10:00,
2013-03-14 00:15:00,66.3,31.1,29.61,SE,135,0.0,2.0,27,0.00,,,0.00,WUHU216HW,2013-03-14 06:15:00,
2013-03-14 00:21:00,66.5,31.2,29.61,North,0,21.4,21.4,27,0.00,,,0.00,WUHU216HW,2013-03-14 06:21:00,
2013-03-14 00:26:00,67.1,32.7,29.61,SSE,158,0.0,21.4,28,0.00,,,0.00,WUHU216HW,2013-03-14 06:26:00,
2013-03-14 00:31:00,66.9,32.5,29.61,SSE,158,0.0,0.6,28,0.00,,,0.00,WUHU216HW,2013-03-14 06:31:00,
2013-03-14 00:36:00,66.7,31.3,29.60,ESE,113,0.0,0.0,27,0.00,,,0.00,WUHU216HW,2013-03-14 06:36:00,
2013-03-14 00:41:00,66.5,31.2,29.61,East,90,0.0,1.5,27,0.00,,,0.00,WUHU216HW,2013-03-14 06:41:00,
2013-03-14 00:46:00,66.2,28.9,29.61,ESE,113,0.0,1.5,25,0.00,,,0.00,WUHU216HW,2013-03-14 06:46:00,
2013-03-14 00:51:00,66.7,30.3,29.61,SSE,158,0.0,0.8,26,0.00,,,0.00,WUHU216HW,2013-03-14 06:51:00,
2013-03-14 00:56:00,66.5,31.2,29.61,SSE,158,0.0,0.8,27,0.00,,,0.00,WUHU216HW,2013-03-14 06:56:00,
2013-03-14 01:01:00,67.2,30.8,29.61,SE,135,0.0,0.0,26,0.00,,,0.00,WUHU216HW,2013-03-14 07:01:00,
2013-03-14 01:06:00,67.2,31.8,29.61,ENE,68,0.0,0.0,27,0.00,,,0.00,WUHU216HW,2013-03-14 07:06:00,
2013-03-14 01:11:00,66.3,30.0,29.61,ENE,68,0.0,1.5,26,0.00,,,0.00,WUHU216HW,2013-03-14 07:11:00,
2013-03-14 01:16:00,66.9,29.5,29.61,SE,135,0.0,1.5,25,0.00,,,0.00,WUHU216HW,2013-03-14 07:16:00,
2013-03-14 01:21:00,67.2,30.8,29.62,ENE,68,0.0,0.0,26,0.00,,,0.00,WUHU216HW,2013-03-14 07:21:00,
2013-03-14 01:26:00,66.5,30.2,29.62,SSE,158,2.2,2.2,25,0.00,,,0.00,WUHU216HW,2013-03-14 07:26:00,
2013-03-14 01:31:00,67.2,29.8,29.62,SSE,158,0.0,2.2,25,0.00,,,0.00,WUHU216HW,2013-03-14 07:31:00,
2013-03-14 01:36:00,66.7,28.3,29.61,East,90,0.0,2.2,24,0.00,,,0.00,WUHU216HW,2013-03-14 07:36:00,
2013-03-14 01:41:00,66.2,27.9,29.62,ESE,113,0.0,0.6,24,0.00,,,0.00,WUHU216HW,2013-03-14 07:41:00,
2013-03-14 01:46:00,66.9,30.5,29.62,ENE,68,0.0,0.6,26,0.00,,,0.00,WUHU216HW,2013-03-14 07:46:00,
2013-03-14 01:51:00,66.3,28.0,29.62,East,90,0.0,0.0,24,0.00,,,0.00,WUHU216HW,2013-03-14 07:51:00,
2013-03-14 01:56:00,67.4,29.0,29.61,ENE,68,0.0,0.0,24,0.00,,,0.00,WUHU216HW,2013-03-14 07:56:00,
2013-03-14 02:01:00,67.1,28.7,29.61,SE,135,0.0,0.0,24,0.00,,,0.00,WUHU216HW,2013-03-14 08:01:00,
2013-03-14 02:06:00,67.6,28.1,29.61,ENE,68,0.0,0.0,23,0.00,,,0.00,WUHU216HW,2013-03-14 08:06:00,
2013-03-14 02:11:00,66.3,28.0,29.61,East,90,0.0,2.0,24,0.00,,,0.00,WUHU216HW,2013-03-14 08:11:00,
2013-03-14 02:16:00,66.3,27.0,29.62,ENE,68,0.0,2.0,23,0.00,,,0.00,WUHU216HW,2013-03-14 08:16:00,
2013-03-14 02:21:00,66.9,27.5,29.61,ENE,68,0.0,0.0,23,0.00,,,0.00,WUHU216HW,2013-03-14 08:21:00,
2013-03-14 02:26:00,66.5,29.2,29.61,SE,135,0.0,0.0,25,0.00,,,0.00,WUHU216HW,2013-03-14 08:26:00,
2013-03-14 02:31:00,66.3,29.0,29.61,East,90,0.0,0.0,25,0.00,,,0.00,WUHU216HW,2013-03-14 08:31:00,
2013-03-14 02:36:00,67.6,29.1,29.61,SSE,158,0.0,0.0,24,0.00,,,0.00,WUHU216HW,2013-03-14 08:36:00,
2013-03-14 02:41:00,67.6,29.1,29.61,East,90,0.0,0.0,24,0.00,,,0.00,WUHU216HW,2013-03-14 08:41:00,
2013-03-14 02:46:00,66.5,29.2,29.60,SSE,158,0.0,0.0,25,0.00,,,0.00,WUHU216HW,2013-03-14 08:46:00,
2013-03-14 02:51:00,67.2,28.8,29.60,ESE,113,0.0,0.0,24,0.00,,,0.00,WUHU216HW,2013-03-14 08:51:00,
2013-03-14 02:56:00,67.1,30.7,29.60,East,90,0.0,0.0,26,0.00,,,0.00,WUHU216HW,2013-03-14 08:56:00,
2013-03-14 03:01:00,68.1,31.6,29.60,ENE,68,0.0,0.0,26,0.00,,,0.00,WUHU216HW,2013-03-14 09:01:00,
2013-03-14 03:06:00,66.7,31.3,29.60,ENE,68,0.0,0.0,27,0.00,,,0.00,WUHU216HW,2013-03-14 09:06:00,
2013-03-14 03:11:00,67.1,31.6,29.60,ENE,68,0.0,0.0,27,0.00,,,0.00,WUHU216HW,2013-03-14 09:11:00,
2013-03-14 03:16:00,68.9,33.2,29.60,NE,45,0.0,0.0,27,0.00,,,0.00,WUHU216HW,2013-03-14 09:16:00,
2013-03-14 03:21:00,67.8,33.2,29.60,NE,45,0.0,0.0,28,0.00,,,0.00,WUHU216HW,2013-03-14 09:21:00,
2013-03-14 03:26:00,68.1,35.5,29.60,NE,45,0.0,0.0,30,0.00,,,0.00,WUHU216HW,2013-03-14 09:26:00,
2013-03-14 03:31:00,68.7,38.2,29.60,East,90,0.0,0.0,33,0.00,,,0.00,WUHU216HW,2013-03-14 09:31:00,
2013-03-14 03:36:00,68.5,38.1,29.60,East,90,0.0,0.0,33,0.00,,,0.00,WUHU216HW,2013-03-14 09:36:00,
2013-03-14 03:41:00,69.9,40.1,29.60,ENE,68,0.0,0.0,34,0.00,,,0.00,WUHU216HW,2013-03-14 09:41:00,
2013-03-14 03:46:00,70.3,41.9,29.60,ENE,68,0.0,0.0,36,0.00,,,0.00,WUHU216HW,2013-03-14 09:46:00,
2013-03-14 03:51:00,70.3,44.1,29.60,NE,45,0.0,0.0,39,0.00,,,0.00,WUHU216HW,2013-03-14 09:51:00,
2013-03-14 03:56:00,70.8,44.6,29.60,NE,45,0.0,0.0,39,0.00,,,0.00,WUHU216HW,2013-03-14 09:56:00,
2013-03-14 04:01:00,70.3,44.4,29.60,ENE,68,0.0,0.0,37,0.00,,,0.00,WUHU216HW,2013-03-14 10:01:00,
2013-03-14 04:06:00,71.4,42.9,29.60,SE,135,0.0,0.0,36,0.00,,,0.00,WUHU216HW,2013-03-14 10:06:00,
2013-03-14 04:11:00,70.5,41.3,29.60,ENE,68,0.0,0.0,35,0.00,,,0.00,WUHU216HW,2013-03-14 10:11:00,
2013-03-14 04:16:00,69.9,41.6,29.60,South,180,0.0,0.0,36,0.00,,,0.00,WUHU216HW,2013-03-14 10:16:00,
2013-03-14 04:21:00,69.8,41.4,29.60,South,180,0.0,0.0,36,0.00,,,0.00,WUHU216HW,2013-03-14 10:21:00,
2013-03-14 04:26:00,71.2,42.7,29.60,ESE,113,0.0,0.0,36,0.00,,,0.00,WUHU216HW,2013-03-14 10:26:00,
2013-03-14 04:31:00,72.1,46.5,29.61,WSW,248,0.0,0.0,40,0.00,,,0.00,WUHU216HW,2013-03-14 10:31:00,
2013-03-14 04:36:00,72.3,47.8,29.60,NNE,23,3.3,3.3,42,0.00,,,0.00,WUHU216HW,2013-03-14 10:36:00,
2013-03-14 04:41:00,71.2,47.4,29.61,ESE,113,1.7,3.3,43,0.00,,,0.00,WUHU216HW,2013-03-14 10:41:00,
2013-03-14 04:46:00,71.6,50.1,29.61,East,90,0.0,3.3,47,0.00,,,0.00,WUHU216HW,2013-03-14 10:46:00,
2013-03-14 04:51:00,72.1,50.6,29.61,South,180,3.3,3.3,47,0.00,,,0.00,WUHU216HW,2013-03-14 10:51:00,
2013-03-14 04:56:00,70.7,49.9,29.61,SE,135,0.0,3.3,48,0.00,,,0.00,WUHU216HW,2013-03-14 10:56:00,
2013-03-14 05:01:00,71.7,53.1,29.61,South,180,2.4,3.3,52,0.00,,,0.00,WUHU216HW,2013-03-14 11:01:00,
2013-03-14 05:06:00,71.4,53.8,29.61,SSW,203,2.9,2.9,54,0.00,,,0.00,WUHU216HW,2013-03-14 11:06:00,
2013-03-14 05:11:00,71.7,54.1,29.61,South,180,2.4,2.9,54,0.00,,,0.00,WUHU216HW,2013-03-14 11:11:00,
2013-03-14 05:16:00,72.1,54.9,29.62,SSE,158,4.9,4.9,55,0.00,,,0.00,WUHU216HW,2013-03-14 11:16:00,
2013-03-14 05:21:00,70.8,54.3,29.62,SSE,158,2.6,4.9,56,0.00,,,0.00,WUHU216HW,2013-03-14 11:21:00,
2013-03-14 05:26:00,71.4,54.8,29.62,SSE,158,0.0,4.9,56,0.00,,,0.00,WUHU216HW,2013-03-14 11:26:00,
2013-03-14 05:31:00,71.2,55.1,29.62,SSE,158,0.0,2.6,57,0.00,,,0.00,WUHU216HW,2013-03-14 11:31:00,
2013-03-14 05:36:00,71.9,57.3,29.63,ESE,113,0.0,3.1,60,0.00,,,0.00,WUHU216HW,2013-03-14 11:36:00,
2013-03-14 05:41:00,72.1,57.0,29.63,SSE,158,1.1,3.1,59,0.00,,,0.00,WUHU216HW,2013-03-14 11:41:00,
2013-03-14 05:46:00,70.7,56.2,29.63,SSE,158,0.0,1.1,60,0.00,,,0.00,WUHU216HW,2013-03-14 11:46:00,
2013-03-14 05:51:00,72.3,58.1,29.63,South,180,1.5,1.5,61,0.00,,,0.00,WUHU216HW,2013-03-14 11:51:00,
2013-03-14 05:56:00,70.5,56.4,29.63,SSE,158,0.6,1.5,61,0.00,,,0.00,WUHU216HW,2013-03-14 11:56:00,
2013-03-14 06:01:00,72.3,58.5,29.63,South,180,2.9,2.9,62,0.00,,,0.00,WUHU216HW,2013-03-14 12:01:00,
2013-03-14 06:06:00,71.9,58.6,29.64,SSE,158,0.0,2.9,63,0.00,,,0.00,WUHU216HW,2013-03-14 12:06:00,
2013-03-14 06:11:00,71.2,58.4,29.63,SSE,158,0.0,2.9,64,0.00,,,0.00,WUHU216HW,2013-03-14 12:11:00,
2013-03-14 06:17:00,71.9,59.9,29.63,SSE,158,0.0,0.0,66,0.00,,,0.00,WUHU216HW,2013-03-14 12:17:00,
2013-03-14 06:22:00,71.7,60.2,29.64,South,180,2.2,2.2,67,0.00,,,0.00,WUHU216HW,2013-03-14 12:22:00,
2013-03-14 06:27:00,70.5,58.9,29.64,SSW,203,0.0,2.2,67,0.00,,,0.00,WUHU216HW,2013-03-14 12:27:00,
2013-03-14 06:32:00,72.3,61.6,29.64,SSE,158,0.6,0.6,69,0.00,,,0.00,WUHU216HW,2013-03-14 12:32:00,
2013-03-14 06:37:00,67.2,56.7,29.64,SSE,158,2.2,2.2,69,0.00,,,0.00,WUHU216HW,2013-03-14 12:37:00,
2013-03-14 06:42:00,67.2,57.2,29.64,ESE,113,0.0,2.2,70,0.00,,,0.00,WUHU216HW,2013-03-14 12:42:00,
2013-03-14 06:47:00,67.2,57.9,29.64,ESE,113,0.0,2.4,72,0.00,,,0.00,WUHU216HW,2013-03-14 12:47:00,
2013-03-14 06:52:00,67.6,58.3,29.65,ESE,113,0.0,2.4,72,0.00,,,0.00,WUHU216HW,2013-03-14 12:52:00,
2013-03-14 06:57:00,67.2,58.3,29.65,East,90,0.0,0.0,73,0.00,,,0.00,WUHU216HW,2013-03-14 12:57:00,
2013-03-14 07:02:00,66.9,58.3,29.65,East,90,0.0,0.0,74,0.00,,,0.00,WUHU216HW,2013-03-14 13:02:00,
2013-03-14 07:07:00,67.6,59.8,29.65,ENE,68,0.0,0.0,76,0.00,,,0.00,WUHU216HW,2013-03-14 13:07:00,
2013-03-14 07:12:00,67.2,60.2,29.65,ENE,68,0.0,0.0,78,0.00,,,0.00,WUHU216HW,2013-03-14 13:12:00,
2013-03-14 07:17:00,67.1,60.0,29.66,ENE,68,0.0,0.0,78,0.00,,,0.00,WUHU216HW,2013-03-14 13:17:00,
2013-03-14 07:22:00,67.2,60.2,29.66,East,90,0.0,0.0,78,0.00,,,0.00,WUHU216HW,2013-03-14 13:22:00,
2013-03-14 07:27:00,66.9,59.4,29.66,East,90,0.0,0.0,77,0.00,,,0.00,WUHU216HW,2013-03-14 13:27:00,
2013-03-14 07:32:00,66.7,59.3,29.66,ENE,68,0.0,0.0,77,0.00,,,0.00,WUHU216HW,2013-03-14 13:32:00,
2013-03-14 07:37:00,66.5,58.5,29.66,East,90,0.0,0.0,75,0.00,,,0.00,WUHU216HW,2013-03-14 13:37:00,
2013-03-14 07:42:00,66.3,57.8,29.66,ESE,113,0.0,0.0,74,0.00,,,0.00,WUHU216HW,2013-03-14 13:42:00,
2013-03-14 07:47:00,66.7,57.4,29.66,East,90,0.0,0.0,72,0.00,,,0.00,WUHU216HW,2013-03-14 13:47:00,
2013-03-14 07:52:00,66.7,57.0,29.66,SE,135,0.0,1.3,71,0.00,,,0.00,WUHU216HW,2013-03-14 13:52:00,
2013-03-14 07:57:00,66.3,56.3,29.66,East,90,0.6,1.3,70,0.00,,,0.00,WUHU216HW,2013-03-14 13:57:00,
2013-03-14 08:02:00,66.3,55.8,29.66,ENE,68,0.8,1.3,69,0.00,,,0.00,WUHU216HW,2013-03-14 14:02:00,
2013-03-14 08:07:00,66.3,55.8,29.66,East,90,2.2,2.2,69,0.00,,,0.00,WUHU216HW,2013-03-14 14:07:00,
2013-03-14 08:12:00,66.5,55.6,29.66,East,90,3.1,3.1,68,0.00,,,0.00,WUHU216HW,2013-03-14 14:12:00,
2013-03-14 08:17:00,66.5,55.2,29.66,East,90,1.7,3.1,67,0.00,,,0.00,WUHU216HW,2013-03-14 14:17:00,
2013-03-14 08:22:00,66.3,54.6,29.67,East,90,1.5,3.1,66,0.00,,,0.00,WUHU216HW,2013-03-14 14:22:00,
2013-03-14 08:27:00,66.3,54.2,29.67,ENE,68,2.0,4.4,65,0.00,,,0.00,WUHU216HW,2013-03-14 14:27:00,
2013-03-14 08:32:00,66.5,54.3,29.67,ESE,113,0.0,4.6,65,0.00,,,0.00,WUHU216HW,2013-03-14 14:32:00,
2013-03-14 08:37:00,66.5,54.5,29.68,East,90,0.8,4.6,65,0.00,,,0.00,WUHU216HW,2013-03-14 14:37:00,
2013-03-14 08:42:00,66.7,54.1,29.67,SE,135,5.1,5.1,64,0.00,,,0.00,WUHU216HW,2013-03-14 14:42:00,
2013-03-14 08:47:00,66.9,53.8,29.67,ESE,113,0.8,5.1,63,0.00,,,0.00,WUHU216HW,2013-03-14 14:47:00,
2013-03-14 08:52:00,67.2,53.7,29.68,SSW,203,3.3,5.5,62,0.00,,,0.00,WUHU216HW,2013-03-14 14:52:00,
2013-03-14 08:57:00,67.6,53.2,29.68,SSW,203,4.6,5.5,60,0.00,,,0.00,WUHU216HW,2013-03-14 14:57:00,
2013-03-14 09:02:00,67.8,52.9,29.68,East,90,1.7,4.6,59,0.00,,,0.00,WUHU216HW,2013-03-14 15:02:00,
2013-03-14 09:07:00,68.0,52.6,29.68,SSE,158,5.1,7.6,58,0.00,,,0.00,WUHU216HW,2013-03-14 15:07:00,
2013-03-14 09:12:00,68.1,51.8,29.68,South,180,4.0,7.6,56,0.00,,,0.00,WUHU216HW,2013-03-14 15:12:00,
2013-03-14 09:17:00,68.3,51.5,29.68,South,180,9.3,10.2,55,0.00,,,0.00,WUHU216HW,2013-03-14 15:17:00,
2013-03-14 09:22:00,68.5,51.1,29.68,South,180,7.8,10.2,54,0.00,,,0.00,WUHU216HW,2013-03-14 15:22:00,
2013-03-14 09:27:00,68.7,50.8,29.67,WSW,248,2.4,7.8,53,0.00,,,0.00,WUHU216HW,2013-03-14 15:27:00,
2013-03-14 09:32:00,69.0,51.1,29.68,SW,225,1.3,7.8,53,0.00,,,0.00,WUHU216HW,2013-03-14 15:32:00,
2013-03-14 09:37:00,69.4,51.0,29.68,South,180,0.8,8.7,52,0.00,,,0.00,WUHU216HW,2013-03-14 15:37:00,
2013-03-14 09:42:00,69.9,51.0,29.68,ESE,113,0.0,8.7,51,0.00,,,0.00,WUHU216HW,2013-03-14 15:42:00,
2013-03-14 09:47:00,70.1,50.6,29.68,SE,135,3.5,3.8,50,0.00,,,0.00,WUHU216HW,2013-03-14 15:47:00,
2013-03-14 09:53:00,70.5,50.4,29.68,SSE,158,7.6,7.6,49,0.00,,,0.00,WUHU216HW,2013-03-14 15:53:00,
2013-03-14 09:58:00,70.8,50.1,29.68,South,180,6.0,7.6,48,0.00,,,0.00,WUHU216HW,2013-03-14 15:58:00,
2013-03-14 10:03:00,70.8,49.5,29.68,SSE,158,5.1,7.6,47,0.00,,,0.00,WUHU216HW,2013-03-14 16:03:00,
2013-03-14 10:08:00,70.8,49.5,29.68,South,180,2.0,6.0,47,0.00,,,0.00,WUHU216HW,2013-03-14 16:08:00,
2013-03-14 10:13:00,71.0,49.1,29.68,SW,225,0.0,2.4,46,0.00,,,0.00,WUHU216HW,2013-03-14 16:13:00,
2013-03-14 10:18:00,71.4,49.4,29.68,SSW,203,5.5,6.9,46,0.00,,,0.00,WUHU216HW,2013-03-14 16:18:00,
2013-03-14 10:23:00,71.4,49.4,29.68,SSW,203,6.9,11.4,46,0.00,,,0.00,WUHU216HW,2013-03-14 16:23:00,
2013-03-14 10:28:00,71.4,48.8,29.68,South,180,8.5,11.4,45,0.00,,,0.00,WUHU216HW,2013-03-14 16:28:00,
2013-03-14 10:33:00,71.7,48.5,29.68,SW,225,7.6,8.5,44,0.00,,,0.00,WUHU216HW,2013-03-14 16:33:00,
2013-03-14 10:38:00,71.9,48.1,29.68,South,180,9.1,9.3,43,0.00,,,0.00,WUHU216HW,2013-03-14 16:38:00,
2013-03-14 10:43:00,71.9,47.7,29.67,SSW,203,6.0,9.3,42,0.00,,,0.00,WUHU216HW,2013-03-14 16:43:00,
2013-03-14 10:48:00,72.3,47.8,29.67,South,180,7.1,12.3,42,0.00,,,0.00,WUHU216HW,2013-03-14 16:48:00,
2013-03-14 10:53:00,72.3,47.8,29.67,SSW,203,9.1,12.3,42,0.00,,,0.00,WUHU216HW,2013-03-14 16:53:00,
2013-03-14 10:58:00,72.6,47.6,29.67,ESE,113,1.3,9.8,41,0.00,,,0.00,WUHU216HW,2013-03-14 16:58:00,
2013-03-14 11:03:00,73.0,47.9,29.67,South,180,4.4,9.8,41,0.00,,,0.00,WUHU216HW,2013-03-14 17:03:00,
2013-03-14 11:08:00,73.4,48.2,29.67,South,180,5.5,8.7,41,0.00,,,0.00,WUHU216HW,2013-03-14 17:08:00,
2013-03-14 11:13:00,73.5,47.0,29.66,SSW,203,2.0,9.1,39,0.00,,,0.00,WUHU216HW,2013-03-14 17:13:00,
2013-03-14 11:18:00,73.7,47.2,29.67,SSW,203,6.9,9.1,39,0.00,,,0.00,WUHU216HW,2013-03-14 17:18:00,
2013-03-14 11:23:00,73.9,47.3,29.66,SSW,203,5.8,6.9,39,0.00,,,0.00,WUHU216HW,2013-03-14 17:23:00,
2013-03-14 11:28:00,74.1,48.3,29.66,South,180,10.7,10.7,40,0.00,,,0.00,WUHU216HW,2013-03-14 17:28:00,
2013-03-14 11:33:00,74.4,47.8,29.66,South,180,2.2,10.7,39,0.00,,,0.00,WUHU216HW,2013-03-14 17:33:00,
2013-03-14 11:38:00,75.0,48.3,29.65,SSE,158,4.4,10.7,39,0.00,,,0.00,WUHU216HW,2013-03-14 17:38:00,
2013-03-14 11:43:00,75.3,48.6,29.65,ESE,113,2.0,5.3,39,0.00,,,0.00,WUHU216HW,2013-03-14 17:43:00,
2013-03-14 11:48:00,75.5,48.0,29.65,North,0,1.3,4.4,38,0.00,,,0.00,WUHU216HW,2013-03-14 17:48:00,
2013-03-14 11:53:00,75.5,47.3,29.65,South,180,5.8,14.3,37,0.00,,,0.00,WUHU216HW,2013-03-14 17:53:00,
2013-03-14 11:58:00,75.7,47.4,29.65,ENE,68,0.0,14.3,37,0.00,,,0.00,WUHU216HW,2013-03-14 17:58:00,
2013-03-14 12:03:00,76.1,47.8,29.65,South,180,13.8,13.8,37,0.00,,,0.00,WUHU216HW,2013-03-14 18:03:00,
2013-03-14 12:08:00,76.2,45.7,29.64,SSE,158,10.2,14.5,34,0.00,,,0.00,WUHU216HW,2013-03-14 18:08:00,
2013-03-14 12:13:00,76.4,45.8,29.63,South,180,6.0,14.5,34,0.00,,,0.00,WUHU216HW,2013-03-14 18:13:00,
2013-03-14 12:18:00,76.8,46.9,29.64,SSE,158,3.3,10.2,35,0.00,,,0.00,WUHU216HW,2013-03-14 18:18:00,
2013-03-14 12:23:00,77.0,47.8,29.63,ESE,113,0.0,6.0,36,0.00,,,0.00,WUHU216HW,2013-03-14 18:23:00,
2013-03-14 12:28:00,77.1,47.2,29.63,SSE,158,3.8,8.0,35,0.00,,,0.00,WUHU216HW,2013-03-14 18:28:00,
2013-03-14 12:33:00,77.1,47.2,29.62,South,180,4.6,8.0,35,0.00,,,0.00,WUHU216HW,2013-03-14 18:33:00,
2013-03-14 12:38:00,77.3,47.4,29.62,SSW,203,7.3,7.3,35,0.00,,,0.00,WUHU216HW,2013-03-14 18:38:00,
2013-03-14 12:43:00,77.5,48.3,29.62,SSE,158,3.8,7.3,36,0.00,,,0.00,WUHU216HW,2013-03-14 18:43:00,
2013-03-14 12:48:00,77.9,47.8,29.61,SE,135,2.4,7.3,35,0.00,,,0.00,WUHU216HW,2013-03-14 18:48:00,
2013-03-14 12:53:00,78.0,48.0,29.61,South,180,3.5,3.8,35,0.00,,,0.00,WUHU216HW,2013-03-14 18:53:00,
2013-03-14 12:58:00,78.2,47.4,29.61,South,180,4.0,5.3,34,0.00,,,0.00,WUHU216HW,2013-03-14 18:58:00,
2013-03-14 13:03:00,78.4,46.7,29.60,South,180,12.3,12.3,33,0.00,,,0.00,WUHU216HW,2013-03-14 19:03:00,
2013-03-14 13:08:00,78.6,47.7,29.60,South,180,3.8,12.3,34,0.00,,,0.00,WUHU216HW,2013-03-14 19:08:00,
2013-03-14 13:13:00,78.6,46.9,29.60,SSE,158,8.0,8.5,33,0.00,,,0.00,WUHU216HW,2013-03-14 19:13:00,
2013-03-14 13:18:00,78.6,46.9,29.59,SW,225,2.9,8.0,33,0.00,,,0.00,WUHU216HW,2013-03-14 19:18:00,
2013-03-14 13:23:00,78.6,46.9,29.59,South,180,7.8,14.5,33,0.00,,,0.00,WUHU216HW,2013-03-14 19:23:00,
2013-03-14 13:28:00,78.6,46.9,29.59,SSW,203,5.3,14.5,33,0.00,,,0.00,WUHU216HW,2013-03-14 19:28:00,
2013-03-14 13:33:00,78.8,47.1,29.59,SW,225,10.0,10.0,33,0.00,,,0.00,WUHU216HW,2013-03-14 19:33:00,
2013-03-14 13:38:00,78.9,46.4,29.58,SSW,203,5.3,10.0,32,0.00,,,0.00,WUHU216HW,2013-03-14 19:38:00,
2013-03-14 13:43:00,78.9,47.2,29.58,SSE,158,6.4,10.7,33,0.00,,,0.00,WUHU216HW,2013-03-14 19:43:00,
2013-03-14 13:48:00,78.9,46.4,29.58,SSE,158,7.3,10.7,32,0.00,,,0.00,WUHU216HW,2013-03-14 19:48:00,
2013-03-14 13:53:00,78.9,46.4,29.58,South,180,2.9,8.7,32,0.00,,,0.00,WUHU216HW,2013-03-14 19:53:00,
2013-03-14 13:58:00,79.1,46.6,29.57,SE,135,6.4,7.3,32,0.00,,,0.00,WUHU216HW,2013-03-14 19:58:00,
2013-03-14 14:03:00,79.1,46.6,29.57,South,180,11.4,11.4,32,0.00,,,0.00,WUHU216HW,2013-03-14 20:03:00,
2013-03-14 14:08:00,79.3,46.8,29.56,South,180,7.8,11.4,32,0.00,,,0.00,WUHU216HW,2013-03-14 20:08:00,
2013-03-14 14:13:00,79.5,47.7,29.56,SE,135,3.8,11.4,32,0.00,,,0.00,WUHU216HW,2013-03-14 20:13:00,
2013-03-14 14:18:00,79.7,47.1,29.56,SW,225,10.9,10.9,32,0.00,,,0.00,WUHU216HW,2013-03-14 20:18:00,
2013-03-14 14:23:00,79.7,46.3,29.56,South,180,10.2,12.3,31,0.00,,,0.00,WUHU216HW,2013-03-14 20:23:00,
2013-03-14 14:28:00,79.7,46.3,29.55,NNE,23,1.5,12.3,31,0.00,,,0.00,WUHU216HW,2013-03-14 20:28:00,
2013-03-14 14:33:00,79.7,46.3,29.55,SSE,158,5.8,6.7,31,0.00,,,0.00,WUHU216HW,2013-03-14 20:33:00,
2013-03-14 14:38:00,79.7,47.1,29.55,SSE,158,0.0,8.2,32,0.00,,,0.00,WUHU216HW,2013-03-14 20:38:00,
2013-03-14 14:43:00,79.7,46.3,29.55,SSE,158,2.4,8.2,31,0.00,,,0.00,WUHU216HW,2013-03-14 20:43:00,
2013-03-14 14:48:00,79.7,46.3,29.54,SSW,203,1.5,8.2,31,0.00,,,0.00,WUHU216HW,2013-03-14 20:48:00,
2013-03-14 14:53:00,79.7,46.3,29.54,SSW,203,6.4,6.4,31,0.00,,,0.00,WUHU216HW,2013-03-14 20:53:00,
2013-03-14 14:58:00,79.5,46.2,29.54,SSW,203,8.0,8.0,31,0.00,,,0.00,WUHU216HW,2013-03-14 20:58:00,
2013-03-14 15:04:00,79.3,46.0,29.54,SSW,203,2.4,8.0,31,0.00,,,0.00,WUHU216HW,2013-03-14 21:04:00,
2013-03-14 15:09:00,79.3,45.2,29.54,SSW,203,8.7,8.7,30,0.00,,,0.00,WUHU216HW,2013-03-14 21:09:00,
2013-03-14 15:14:00,79.3,45.2,29.53,SE,135,4.0,8.7,29,0.00,,,0.00,WUHU216HW,2013-03-14 21:14:00,
2013-03-14 15:19:00,79.3,44.2,29.53,SSW,203,6.9,11.4,29,0.00,,,0.00,WUHU216HW,2013-03-14 21:19:00,
2013-03-14 15:24:00,79.1,44.0,29.52,SE,135,0.0,11.4,29,0.00,,,0.00,WUHU216HW,2013-03-14 21:24:00,
2013-03-14 15:29:00,79.1,45.1,29.52,SSW,203,1.5,6.9,30,0.00,,,0.00,WUHU216HW,2013-03-14 21:29:00,
2013-03-14 15:34:00,79.1,45.8,29.52,ESE,113,2.4,6.2,31,0.00,,,0.00,WUHU216HW,2013-03-14 21:34:00,
2013-03-14 15:39:00,79.3,45.2,29.52,SSW,203,4.9,7.3,30,0.00,,,0.00,WUHU216HW,2013-03-14 21:39:00,
2013-03-14 15:44:00,79.1,44.9,29.52,ESE,113,0.6,7.3,30,0.00,,,0.00,WUHU216HW,2013-03-14 21:44:00,
2013-03-14 15:49:00,78.9,44.9,29.52,SSW,203,8.2,8.2,30,0.00,,,0.00,WUHU216HW,2013-03-14 21:49:00,
2013-03-14 15:54:00,78.9,44.9,29.52,South,180,10.2,10.2,30,0.00,,,0.00,WUHU216HW,2013-03-14 21:54:00,
2013-03-14 15:59:00,78.8,44.7,29.52,SSW,203,2.0,10.2,30,0.00,,,0.00,WUHU216HW,2013-03-14 21:59:00,
2013-03-14 16:04:00,78.9,44.9,29.51,South,180,2.9,3.8,30,0.00,,,0.00,WUHU216HW,2013-03-14 22:04:00,
2013-03-14 16:09:00,78.8,44.7,29.51,South,180,3.3,3.3,30,0.00,,,0.00,WUHU216HW,2013-03-14 22:09:00,
2013-03-14 16:14:00,78.8,44.7,29.51,SSE,158,5.3,5.8,30,0.00,,,0.00,WUHU216HW,2013-03-14 22:14:00,
2013-03-14 16:19:00,78.6,43.5,29.51,SSE,158,4.2,5.8,29,0.00,,,0.00,WUHU216HW,2013-03-14 22:19:00,
2013-03-14 16:24:00,78.6,43.5,29.51,South,180,4.9,5.3,29,0.00,,,0.00,WUHU216HW,2013-03-14 22:24:00,
2013-03-14 16:29:00,78.4,42.4,29.51,South,180,7.6,8.2,28,0.00,,,0.00,WUHU216HW,2013-03-14 22:29:00,
2013-03-14 16:34:00,78.0,42.1,29.52,South,180,7.6,8.2,28,0.00,,,0.00,WUHU216HW,2013-03-14 22:34:00,
2013-03-14 16:39:00,78.0,42.1,29.51,South,180,2.4,7.6,28,0.00,,,0.00,WUHU216HW,2013-03-14 22:39:00,
2013-03-14 16:44:00,78.0,42.1,29.51,North,0,0.0,7.6,28,0.00,,,0.00,WUHU216HW,2013-03-14 22:44:00,
2013-03-14 16:49:00,77.9,41.9,29.51,SSE,158,4.2,7.6,28,0.00,,,0.00,WUHU216HW,2013-03-14 22:49:00,
2013-03-14 16:54:00,77.7,42.8,29.50,South,180,6.0,7.6,29,0.00,,,0.00,WUHU216HW,2013-03-14 22:54:00,
2013-03-14 16:59:00,77.5,41.6,29.50,SE,135,2.2,6.0,28,0.00,,,0.00,WUHU216HW,2013-03-14 22:59:00,
2013-03-14 17:04:00,77.3,41.5,29.51,SSW,203,3.8,4.9,28,0.00,,,0.00,WUHU216HW,2013-03-14 23:04:00,
2013-03-14 17:09:00,77.3,42.5,29.51,South,180,4.0,4.0,29,0.00,,,0.00,WUHU216HW,2013-03-14 23:09:00,
2013-03-14 17:14:00,77.1,41.3,29.50,SSE,158,3.3,5.1,28,0.00,,,0.00,WUHU216HW,2013-03-14 23:14:00,
2013-03-14 17:19:00,77.0,41.2,29.50,SSE,158,2.0,5.1,28,0.00,,,0.00,WUHU216HW,2013-03-14 23:19:00,
2013-03-14 17:24:00,76.8,41.0,29.51,South,180,0.8,3.3,28,0.00,,,0.00,WUHU216HW,2013-03-14 23:24:00,
2013-03-14 17:29:00,76.6,41.9,29.50,SSE,158,0.8,2.2,29,0.00,,,0.00,WUHU216HW,2013-03-14 23:29:00,
2013-03-14 17:34:00,76.4,41.8,29.50,SE,135,0.0,4.0,29,0.00,,,0.00,WUHU216HW,2013-03-14 23:34:00,
2013-03-14 17:39:00,76.2,41.6,29.50,South,180,8.2,8.2,29,0.00,,,0.00,WUHU216HW,2013-03-14 23:39:00,
2013-03-14 17:44:00,76.1,40.4,29.50,SSE,158,3.5,8.2,28,0.00,,,0.00,WUHU216HW,2013-03-14 23:44:00,
2013-03-14 17:49:00,75.9,40.2,29.50,South,180,8.7,8.7,28,0.00,,,0.00,WUHU216HW,2013-03-14 23:49:00,
2013-03-14 17:54:00,75.9,40.2,29.50,SE,135,0.0,8.7,28,0.00,,,0.00,WUHU216HW,2013-03-14 23:54:00,
2013-03-14 17:59:00,75.7,40.1,29.50,SSE,158,3.1,4.4,28,0.00,,,0.00,WUHU216HW,2013-03-14 23:59:00,
2013-03-14 18:04:00,75.5,39.9,29.50,SSE,158,0.0,4.4,28,0.00,,,0.00,WUHU216HW,2013-03-15 00:04:00,
2013-03-14 18:09:00,75.3,39.8,29.50,SSE,158,2.9,3.1,28,0.00,,,0.00,WUHU216HW,2013-03-15 00:09:00,
2013-03-14 18:14:00,75.0,40.5,29.50,SE,135,0.8,2.9,29,0.00,,,0.00,WUHU216HW,2013-03-15 00:14:00,
2013-03-14 18:19:00,74.8,40.3,29.50,South,180,2.4,2.6,29,0.00,,,0.00,WUHU216HW,2013-03-15 00:19:00,
2013-03-14 18:24:00,74.4,40.0,29.51,SSE,158,2.4,2.4,29,0.00,,,0.00,WUHU216HW,2013-03-15 00:24:00,
2013-03-14 18:29:00,74.3,39.8,29.51,ESE,113,0.0,2.4,29,0.00,,,0.00,WUHU216HW,2013-03-15 00:29:00,
2013-03-14 18:34:00,74.1,39.7,29.51,SSE,158,0.0,1.5,29,0.00,,,0.00,WUHU216HW,2013-03-15 00:34:00,
2013-03-14 18:39:00,73.9,39.5,29.51,SE,135,0.0,0.0,29,0.00,,,0.00,WUHU216HW,2013-03-15 00:39:00,
2013-03-14 18:44:00,73.5,39.2,29.51,ESE,113,0.0,0.0,29,0.00,,,0.00,WUHU216HW,2013-03-15 00:44:00,
2013-03-14 18:49:00,73.2,39.9,29.50,SSE,158,1.1,1.1,30,0.00,,,0.00,WUHU216HW,2013-03-15 00:49:00,
2013-03-14 18:54:00,73.0,39.8,29.50,South,180,0.0,1.3,30,0.00,,,0.00,WUHU216HW,2013-03-15 00:54:00,
2013-03-14 18:59:00,72.6,39.5,29.50,South,180,0.6,1.3,30,0.00,,,0.00,WUHU216HW,2013-03-15 00:59:00,
2013-03-14 19:04:00,72.5,39.3,29.50,SSE,158,0.0,0.6,30,0.00,,,0.00,WUHU216HW,2013-03-15 01:04:00,
2013-03-14 19:09:00,72.3,39.2,29.50,SSE,158,0.0,0.6,30,0.00,,,0.00,WUHU216HW,2013-03-15 01:09:00,
2013-03-14 19:14:00,72.1,39.8,29.50,SSE,158,0.6,0.8,31,0.00,,,0.00,WUHU216HW,2013-03-15 01:14:00,
2013-03-14 19:19:00,72.1,39.0,29.50,SSE,158,0.6,0.8,30,0.00,,,0.00,WUHU216HW,2013-03-15 01:19:00,
2013-03-14 19:24:00,72.1,39.8,29.50,SE,135,0.6,0.6,31,0.00,,,0.00,WUHU216HW,2013-03-15 01:24:00,
2013-03-14 19:29:00,71.7,39.5,29.50,SE,135,0.0,0.6,31,0.00,,,0.00,WUHU216HW,2013-03-15 01:29:00,
2013-03-14 19:34:00,71.4,39.2,29.50,SSE,158,0.8,0.8,31,0.00,,,0.00,WUHU216HW,2013-03-15 01:34:00,
2013-03-14 19:39:00,71.4,39.2,29.50,South,180,0.0,0.8,31,0.00,,,0.00,WUHU216HW,2013-03-15 01:39:00,
2013-03-14 19:44:00,71.0,39.6,29.50,SE,135,0.8,0.8,32,0.00,,,0.00,WUHU216HW,2013-03-15 01:44:00,
2013-03-14 19:49:00,70.8,39.4,29.50,South,180,0.6,0.8,32,0.00,,,0.00,WUHU216HW,2013-03-15 01:49:00,
2013-03-14 19:54:00,70.8,38.0,29.50,SE,135,1.1,1.1,30,0.00,,,0.00,WUHU216HW,2013-03-15 01:54:00,
2013-03-14 19:59:00,70.7,38.5,29.50,South,180,0.8,1.1,31,0.00,,,0.00,WUHU216HW,2013-03-15 01:59:00,
2013-03-14 20:04:00,70.5,38.4,29.50,SSE,158,0.0,1.1,31,0.00,,,0.00,WUHU216HW,2013-03-15 02:04:00,
2013-03-14 20:09:00,70.3,39.0,29.50,SSE,158,0.8,0.8,32,0.00,,,0.00,WUHU216HW,2013-03-15 02:09:00,
2013-03-14 20:14:00,70.3,40.4,29.51,SSE,158,0.0,0.8,34,0.00,,,0.00,WUHU216HW,2013-03-15 02:14:00,
2013-03-14 20:19:00,70.3,39.7,29.51,SE,135,1.1,1.1,33,0.00,,,0.00,WUHU216HW,2013-03-15 02:19:00,
2013-03-14 20:24:00,69.9,39.4,29.51,ESE,113,1.1,1.1,33,0.00,,,0.00,WUHU216HW,2013-03-15 02:24:00,
2013-03-14 20:29:00,69.9,39.4,29.51,ESE,113,0.6,1.1,33,0.00,,,0.00,WUHU216HW,2013-03-15 02:29:00,
2013-03-14 20:34:00,69.6,39.0,29.51,SSE,158,1.3,1.3,33,0.00,,,0.00,WUHU216HW,2013-03-15 02:34:00,
2013-03-14 20:39:00,69.4,39.6,29.51,SSE,158,0.8,1.3,34,0.00,,,0.00,WUHU216HW,2013-03-15 02:39:00,
2013-03-14 20:44:00,69.4,39.6,29.51,ESE,113,1.3,1.3,34,0.00,,,0.00,WUHU216HW,2013-03-15 02:44:00,
2013-03-14 20:49:00,69.6,40.5,29.51,ESE,113,1.3,1.3,35,0.00,,,0.00,WUHU216HW,2013-03-15 02:49:00,
2013-03-14 20:54:00,69.2,40.2,29.51,ESE,113,0.0,1.3,35,0.00,,,0.00,WUHU216HW,2013-03-15 02:54:00,
2013-03-14 20:59:00,69.2,40.2,29.51,SE,135,0.0,1.3,35,0.00,,,0.00,WUHU216HW,2013-03-15 02:59:00,
2013-03-14 21:04:00,69.2,40.2,29.51,SE,135,0.0,0.8,35,0.00,,,0.00,WUHU216HW,2013-03-15 03:04:00,
2013-03-14 21:09:00,68.7,39.7,29.51,SE,135,0.0,1.1,35,0.00,,,0.00,WUHU216HW,2013-03-15 03:09:00,
2013-03-14 21:14:00,68.7,39.7,29.51,ESE,113,0.0,1.1,35,0.00,,,0.00,WUHU216HW,2013-03-15 03:14:00,
2013-03-14 21:19:00,68.9,40.6,29.51,SSE,158,0.0,0.0,36,0.00,,,0.00,WUHU216HW,2013-03-15 03:19:00,
2013-03-14 21:24:00,68.9,40.6,29.51,SSE,158,1.1,1.1,36,0.00,,,0.00,WUHU216HW,2013-03-15 03:24:00,
2013-03-14 21:29:00,68.7,40.4,29.52,ESE,113,1.1,1.3,36,0.00,,,0.00,WUHU216HW,2013-03-15 03:29:00,
2013-03-14 21:34:00,68.5,40.3,29.51,ESE,113,1.1,1.3,36,0.00,,,0.00,WUHU216HW,2013-03-15 03:34:00,
2013-03-14 21:39:00,68.7,41.2,29.51,South,180,0.0,1.1,37,0.00,,,0.00,WUHU216HW,2013-03-15 03:39:00,
2013-03-14 21:44:00,68.7,41.9,29.51,East,90,0.0,1.3,38,0.00,,,0.00,WUHU216HW,2013-03-15 03:44:00,
2013-03-14 21:49:00,68.5,41.8,29.52,East,90,1.1,1.3,38,0.00,,,0.00,WUHU216HW,2013-03-15 03:49:00,
2013-03-14 21:54:00,68.5,41.8,29.52,East,90,2.0,2.0,38,0.00,,,0.00,WUHU216HW,2013-03-15 03:54:00,
2013-03-14 22:00:00,68.3,40.9,29.52,ESE,113,0.0,2.0,37,0.00,,,0.00,WUHU216HW,2013-03-15 04:00:00,
2013-03-14 22:05:00,68.1,40.4,29.52,ESE,113,0.0,0.0,37,0.00,,,0.00,WUHU216HW,2013-03-15 04:05:00,
2013-03-14 22:10:00,68.1,41.4,29.52,SE,135,1.3,1.3,38,0.00,,,0.00,WUHU216HW,2013-03-15 04:10:00,
2013-03-14 22:15:00,67.8,41.1,29.52,East,90,2.4,2.4,38,0.00,,,0.00,WUHU216HW,2013-03-15 04:15:00,
2013-03-14 22:20:00,67.8,41.1,29.52,South,180,3.3,3.3,38,0.00,,,0.00,WUHU216HW,2013-03-15 04:20:00,
2013-03-14 22:25:00,67.8,41.1,29.52,ESE,113,0.8,10.9,38,0.00,,,0.00,WUHU216HW,2013-03-15 04:25:00,
2013-03-14 22:30:00,68.1,41.4,29.52,South,180,6.0,10.9,38,0.00,,,0.00,WUHU216HW,2013-03-15 04:30:00,
2013-03-14 22:35:00,68.1,41.4,29.52,SSE,158,1.7,6.0,38,0.00,,,0.00,WUHU216HW,2013-03-15 04:35:00,
2013-03-14 22:40:00,68.1,42.2,29.52,SSE,158,0.0,2.4,39,0.00,,,0.00,WUHU216HW,2013-03-15 04:40:00,
2013-03-14 22:45:00,67.8,42.6,29.52,SSE,158,1.1,2.4,40,0.00,,,0.00,WUHU216HW,2013-03-15 04:45:00,
2013-03-14 22:50:00,68.1,44.1,29.52,South,180,1.5,1.5,43,0.00,,,0.00,WUHU216HW,2013-03-15 04:50:00,
2013-03-14 22:55:00,68.1,44.7,29.52,ESE,113,0.0,1.5,43,0.00,,,0.00,WUHU216HW,2013-03-15 04:55:00,
2013-03-14 23:00:00,67.8,44.4,29.52,SSE,158,4.0,4.0,43,0.00,,,0.00,WUHU216HW,2013-03-15 05:00:00,
2013-03-14 23:05:00,67.8,45.0,29.52,SSE,158,8.7,8.7,44,0.00,,,0.00,WUHU216HW,2013-03-15 05:05:00,
2013-03-14 23:10:00,67.8,45.6,29.52,South,180,3.5,8.7,45,0.00,,,0.00,WUHU216HW,2013-03-15 05:10:00,
2013-03-14 23:15:00,67.8,46.2,29.52,South,180,1.3,8.7,46,0.00,,,0.00,WUHU216HW,2013-03-15 05:15:00,
2013-03-14 23:20:00,67.8,46.7,29.52,SE,135,1.7,4.0,47,0.00,,,0.00,WUHU216HW,2013-03-15 05:20:00,
2013-03-14 23:25:00,67.8,46.7,29.52,SSW,203,4.9,6.2,47,0.00,,,0.00,WUHU216HW,2013-03-15 05:25:00,
2013-03-14 23:30:00,67.8,47.9,29.52,South,180,3.5,6.2,49,0.00,,,0.00,WUHU216HW,2013-03-15 05:30:00,
2013-03-14 23:35:00,67.8,49.0,29.52,SSE,158,3.8,4.9,51,0.00,,,0.00,WUHU216HW,2013-03-15 05:35:00,
2013-03-14 23:40:00,67.8,49.0,29.52,SSW,203,1.1,4.9,51,0.00,,,0.00,WUHU216HW,2013-03-15 05:40:00,
2013-03-14 23:45:00,67.8,49.0,29.52,SE,135,3.1,3.8,51,0.00,,,0.00,WUHU216HW,2013-03-15 05:45:00,
2013-03-14 23:50:00,67.6,48.9,29.53,SSW,203,1.1,3.8,51,0.00,,,0.00,WUHU216HW,2013-03-15 05:50:00,
2013-03-14 23:55:00,67.2,49.5,29.53,SW,225,2.0,2.0,53,0.00,,,0.00,WUHU216HW,2013-03-15 05:55:00,